createdAt,value
2022-09-03T00:01:25.469Z,100436.09
2022-09-03T00:04:03.701Z,100453.66
2022-09-03T00:06:39.987Z,100440.28
2022-09-03T00:09:21.468Z,100445.53
2022-09-03T00:12:00.775Z,100442.19
2022-09-03T00:14:51.587Z,100443.13
2022-09-03T00:17:22.952Z,100433.25
2022-09-03T00:20:00.925Z,100437.81
2022-09-03T00:22:33.791Z,100433.34
2022-09-03T00:25:05.456Z,100440.38
2022-09-03T00:27:36.446Z,100436.88
2022-09-03T00:30:10.129Z,100438.00
2022-09-03T00:32:47.340Z,100429.19
2022-09-03T00:35:40.215Z,100436.31
2022-09-03T00:38:06.966Z,100426.78
2022-09-03T00:40:54.485Z,100427.75
2022-09-03T00:43:53.071Z,100439.03
2022-09-03T00:46:30.869Z,100439.72
2022-09-03T00:49:22.235Z,100443.47
2022-09-03T00:52:11.422Z,100442.53
2022-09-03T00:54:46.856Z,100441.59
2022-09-03T00:57:47.713Z,100433.81
2022-09-03T01:00:21.923Z,100441.19
2022-09-03T01:03:06.997Z,100435.97
2022-09-03T01:05:52.314Z,100445.81
2022-09-03T01:08:36.990Z,100431.50
2022-09-03T01:11:43.203Z,100428.78
2022-09-03T01:14:24.891Z,100426.97
2022-09-03T01:17:05.414Z,100430.59
2022-09-03T01:20:03.327Z,100425.63
2022-09-03T01:22:39.123Z,100432.84
2022-09-03T01:25:32.178Z,100430.09
2022-09-03T01:28:48.939Z,100426.72
2022-09-03T01:31:37.310Z,100411.66
2022-09-03T01:34:16.214Z,100423.31
2022-09-03T01:36:45.711Z,100419.91
2022-09-03T01:39:25.007Z,100422.66
2022-09-03T01:42:20.251Z,100420.09
2022-09-03T01:45:32.377Z,100423.00
2022-09-03T01:48:30.998Z,100413.25
2022-09-03T01:51:11.528Z,100419.41
2022-09-03T01:54:15.647Z,100423.75
2022-09-03T01:57:35.746Z,100426.25
2022-09-03T02:00:14.537Z,100421.31
2022-09-03T02:02:43.527Z,100423.34
2022-09-03T02:05:24.794Z,100424.38
2022-09-03T02:08:01.125Z,100425.25
2022-09-03T02:10:31.651Z,100423.53
2022-09-03T02:13:21.499Z,100433.50
2022-09-03T02:15:52.156Z,100427.47
2022-09-03T02:18:23.160Z,100431.34
2022-09-03T02:20:53.257Z,100424.47
2022-09-03T02:23:25.526Z,100436.66
2022-09-03T02:25:58.501Z,100432.28
2022-09-03T02:28:27.287Z,100429.72
2022-09-03T02:30:54.404Z,100422.59
2022-09-03T02:33:21.158Z,100423.72
2022-09-03T02:35:47.629Z,100429.09
2022-09-03T02:38:18.609Z,100433.47
2022-09-03T02:40:45.773Z,100429.00
2022-09-03T02:43:18.771Z,100429.16
2022-09-03T02:45:50.505Z,100432.19
2022-09-03T02:48:22.721Z,100433.19
2022-09-03T02:50:49.435Z,100430.53
2022-09-03T02:53:16.734Z,100430.91
2022-09-03T02:55:44.404Z,100425.09
2022-09-03T02:58:11.350Z,100423.56
2022-09-03T03:00:38.264Z,100420.09
2022-09-03T03:03:06.356Z,100420.09
2022-09-03T03:05:48.542Z,100414.03
2022-09-03T03:08:16.995Z,100424.66
2022-09-03T03:10:46.356Z,100418.75
2022-09-03T03:13:13.520Z,100418.75
2022-09-03T03:15:40.220Z,100416.13
2022-09-03T03:18:07.633Z,100423.19
2022-09-03T03:20:34.671Z,100419.94
2022-09-03T03:23:05.628Z,100416.59
2022-09-03T03:25:33.366Z,100417.72
2022-09-03T03:28:00.365Z,100405.50
2022-09-03T03:30:28.069Z,100404.19
2022-09-03T03:32:55.107Z,100410.59
2022-09-03T03:35:22.084Z,100407.00
2022-09-03T03:37:48.620Z,100405.19
2022-09-03T03:40:15.403Z,100406.22
2022-09-03T03:42:42.568Z,100412.38
2022-09-03T03:45:12.954Z,100407.19
2022-09-03T03:47:39.389Z,100415.22
2022-09-03T03:50:06.452Z,100413.50
2022-09-03T03:52:33.008Z,100415.34
2022-09-03T03:54:59.509Z,100408.44
2022-09-03T03:57:26.052Z,100408.44
2022-09-03T03:59:52.501Z,100399.72
2022-09-03T04:02:19.037Z,100399.91
2022-09-03T04:04:45.605Z,100399.09
2022-09-03T04:07:12.056Z,100405.44
2022-09-03T04:09:38.754Z,100402.78
2022-09-03T04:12:08.564Z,100397.41
2022-09-03T04:14:35.286Z,100397.56
2022-09-03T04:17:03.090Z,100391.50
2022-09-03T04:19:30.237Z,100402.03
2022-09-03T04:21:57.104Z,100403.09
2022-09-03T04:24:23.981Z,100393.44
2022-09-03T04:26:50.657Z,100390.81
2022-09-03T04:29:18.318Z,100390.09
2022-09-03T04:32:04.889Z,100385.88
2022-09-03T04:34:31.412Z,100385.09
2022-09-03T04:37:00.775Z,100381.69
2022-09-03T04:39:27.330Z,100387.94
2022-09-03T04:41:53.880Z,100386.22
2022-09-03T04:44:20.413Z,100390.72
2022-09-03T04:46:48.165Z,100392.47
2022-09-03T04:49:15.132Z,100388.06
2022-09-03T04:51:41.913Z,100392.69
2022-09-03T04:54:09.943Z,100398.06
2022-09-03T04:56:38.566Z,100398.94
2022-09-03T04:59:08.735Z,100402.44
2022-09-03T05:01:38.032Z,100401.56
2022-09-03T05:04:05.832Z,100404.44
2022-09-03T05:06:33.311Z,100404.63
2022-09-03T05:09:00.383Z,100402.06
2022-09-03T05:11:28.137Z,100405.56
2022-09-03T05:13:57.363Z,100401.03
2022-09-03T05:16:25.390Z,100401.03
2022-09-03T05:18:54.074Z,100398.56
2022-09-03T05:21:22.321Z,100402.91
2022-09-03T05:23:53.322Z,100404.53
2022-09-03T05:26:25.959Z,100403.69
2022-09-03T05:28:58.975Z,100401.78
2022-09-03T05:31:28.517Z,100399.00
2022-09-03T05:33:58.604Z,100395.34
2022-09-03T05:36:27.428Z,100401.25
2022-09-03T05:38:54.449Z,100387.16
2022-09-03T05:41:21.999Z,100394.00
2022-09-03T05:43:55.859Z,100393.81
2022-09-03T05:46:28.026Z,100396.41
2022-09-03T05:48:54.707Z,100393.69
2022-09-03T05:51:21.278Z,100394.63
2022-09-03T05:53:49.357Z,100383.94
2022-09-03T05:56:25.312Z,100390.09
2022-09-03T05:58:55.020Z,100398.03
2022-09-03T06:01:30.933Z,100407.69
2022-09-03T06:03:58.694Z,100405.97
2022-09-03T06:06:27.649Z,100411.09
2022-09-03T06:09:00.587Z,100409.25
2022-09-03T06:11:30.952Z,100416.13
2022-09-03T06:14:01.566Z,100402.78
2022-09-03T06:16:31.700Z,100409.66
2022-09-03T06:19:00.137Z,100413.91
2022-09-03T06:21:27.785Z,100414.78
2022-09-03T06:23:59.998Z,100408.44
2022-09-03T06:26:28.848Z,100409.22
2022-09-03T06:28:57.258Z,100414.44
2022-09-03T06:31:24.794Z,100402.91
2022-09-03T06:33:53.072Z,100415.88
2022-09-03T06:36:20.424Z,100414.63
2022-09-03T06:38:47.655Z,100413.44
2022-09-03T06:41:21.145Z,100412.09
2022-09-03T06:43:49.410Z,100411.06
2022-09-03T06:46:59.058Z,100402.91
2022-09-03T06:49:26.298Z,100398.91
2022-09-03T06:51:55.518Z,100404.06
2022-09-03T06:54:23.207Z,100401.31
2022-09-03T06:56:49.832Z,100402.94
2022-09-03T06:59:16.556Z,100402.94
2022-09-03T07:01:46.311Z,100409.00
2022-09-03T07:04:19.169Z,100410.44
2022-09-03T07:06:46.640Z,100411.31
2022-09-03T07:09:14.983Z,100410.97
2022-09-03T07:11:47.425Z,100404.72
2022-09-03T07:14:16.543Z,100410.69
2022-09-03T07:16:43.806Z,100401.63
2022-09-03T07:19:10.923Z,100408.75
2022-09-03T07:21:37.806Z,100415.75
2022-09-03T07:24:06.047Z,100412.69
2022-09-03T07:26:44.700Z,100409.66
2022-09-03T07:29:11.996Z,100411.88
2022-09-03T07:31:40.440Z,100406.41
2022-09-03T07:34:12.738Z,100412.91
2022-09-03T07:36:48.843Z,100411.50
2022-09-03T07:39:16.774Z,100412.00
2022-09-03T07:41:46.026Z,100411.91
2022-09-03T07:44:15.355Z,100414.38
2022-09-03T07:46:43.509Z,100415.91
2022-09-03T07:49:10.630Z,100417.72
2022-09-03T07:51:38.573Z,100414.19
2022-09-03T07:54:09.126Z,100410.88
2022-09-03T07:56:36.593Z,100420.63
2022-09-03T07:59:04.541Z,100420.44
2022-09-03T08:01:32.910Z,100420.38
2022-09-03T08:03:59.914Z,100420.75
2022-09-03T08:06:28.153Z,100420.84
2022-09-03T08:09:05.009Z,100426.75
2022-09-03T08:11:35.051Z,100419.34
2022-09-03T08:14:07.358Z,100428.00
2022-09-03T08:16:37.144Z,100424.59
2022-09-03T08:19:04.889Z,100434.50
2022-09-03T08:21:31.944Z,100420.38
2022-09-03T08:24:04.661Z,100434.34
2022-09-03T08:26:36.568Z,100437.66
2022-09-03T08:29:04.532Z,100432.00
2022-09-03T08:31:32.388Z,100433.50
2022-09-03T08:34:03.182Z,100428.81
2022-09-03T08:36:31.183Z,100427.25
2022-09-03T08:39:09.463Z,100438.59
2022-09-03T08:41:47.492Z,100435.63
2022-09-03T08:44:51.849Z,100443.44
2022-09-03T08:48:10.235Z,100441.53
2022-09-03T08:50:52.704Z,100432.88
2022-09-03T08:53:28.284Z,100448.56
2022-09-03T08:56:02.940Z,100440.47
2022-09-03T08:58:33.918Z,100440.13
2022-09-03T09:01:11.500Z,100444.38
2022-09-03T09:03:42.335Z,100447.69
2022-09-03T09:06:26.596Z,100449.50
2022-09-03T09:08:56.404Z,100440.50
2022-09-03T09:12:04.815Z,100443.63
2022-09-03T09:14:53.116Z,100454.72
2022-09-03T09:18:02.039Z,100445.34
2022-09-03T09:20:37.606Z,100444.75
2022-09-03T09:23:06.827Z,100431.88
2022-09-03T09:25:39.380Z,100442.50
2022-09-03T09:28:23.198Z,100438.31
2022-09-03T09:30:54.030Z,100440.22
2022-09-03T09:33:21.004Z,100432.13
2022-09-03T09:35:48.077Z,100441.16
2022-09-03T09:38:16.456Z,100430.72
2022-09-03T09:40:45.631Z,100438.78
2022-09-03T09:43:16.168Z,100434.69
2022-09-03T09:45:48.525Z,100437.56
2022-09-03T09:48:21.059Z,100437.72
2022-09-03T09:50:47.710Z,100441.63
2022-09-03T09:53:18.550Z,100443.53
2022-09-03T09:55:52.036Z,100433.53
2022-09-03T09:58:21.101Z,100441.25
2022-09-03T10:01:15.946Z,100443.09
2022-09-03T10:04:01.052Z,100454.53
2022-09-03T10:06:50.131Z,100456.91
2022-09-03T10:09:20.032Z,100452.81
2022-09-03T10:12:04.299Z,100453.75
2022-09-03T10:14:37.284Z,100458.97
2022-09-03T10:17:22.100Z,100458.75
2022-09-03T10:20:24.148Z,100467.31
2022-09-03T10:22:56.622Z,100458.19
2022-09-03T10:25:28.669Z,100458.19
2022-09-03T10:28:01.977Z,100459.13
2022-09-03T10:30:46.235Z,100463.59
2022-09-03T10:33:22.870Z,100467.22
2022-09-03T10:36:01.026Z,100468.84
2022-09-03T10:38:36.570Z,100463.41
2022-09-03T10:41:19.932Z,100469.50
2022-09-03T10:44:10.727Z,100464.16
2022-09-03T10:46:50.937Z,100464.06
2022-09-03T10:49:46.104Z,100474.31
2022-09-03T10:52:17.843Z,100472.41
2022-09-03T10:55:09.202Z,100466.97
2022-09-03T10:57:48.506Z,100476.59
2022-09-03T11:00:18.180Z,100470.31
2022-09-03T11:03:22.389Z,100469.88
2022-09-03T11:05:51.897Z,100472.38
2022-09-03T11:08:28.337Z,100475.78
2022-09-03T11:11:00.226Z,100476.53
2022-09-03T11:13:35.790Z,100478.78
2022-09-03T11:16:11.977Z,100473.25
2022-09-03T11:18:46.984Z,100464.41
2022-09-03T11:21:16.716Z,100470.47
2022-09-03T11:23:50.537Z,100464.19
2022-09-03T11:26:26.218Z,100461.44
2022-09-03T11:29:20.416Z,100464.84
2022-09-03T11:32:07.859Z,100457.50
2022-09-03T11:34:46.392Z,100460.06
2022-09-03T11:37:30.869Z,100457.63
2022-09-03T11:40:21.770Z,100452.28
2022-09-03T11:42:48.679Z,100454.72
2022-09-03T11:45:27.402Z,100453.81
2022-09-03T11:47:54.634Z,100449.97
2022-09-03T11:50:30.168Z,100451.66
2022-09-03T11:53:25.235Z,100453.00
2022-09-03T11:56:12.970Z,100453.56
2022-09-03T11:58:42.893Z,100442.91
2022-09-03T12:01:16.024Z,100441.72
2022-09-03T12:04:04.835Z,100436.38
2022-09-03T12:07:06.696Z,100438.63
2022-09-03T12:09:39.353Z,100431.94
2022-09-03T12:12:29.786Z,100433.50
2022-09-03T12:15:10.686Z,100435.97
2022-09-03T12:18:17.605Z,100429.03
2022-09-03T12:20:45.010Z,100418.88
2022-09-03T12:23:15.058Z,100420.03
2022-09-03T12:25:48.471Z,100418.16
2022-09-03T12:28:23.476Z,100420.06
2022-09-03T12:30:53.336Z,100415.78
2022-09-03T12:33:22.773Z,100418.22
2022-09-03T12:36:00.710Z,100406.41
2022-09-03T12:38:29.858Z,100408.47
2022-09-03T12:43:51.807Z,100407.47
2022-09-03T12:46:23.151Z,100405.66
2022-09-03T12:52:06.607Z,100399.56
2022-09-03T12:54:37.983Z,100390.56
2022-09-03T12:57:05.148Z,100385.31
2022-09-03T12:59:35.496Z,100392.88
2022-09-03T13:02:12.862Z,100393.53
2022-09-03T13:04:40.308Z,100393.66
2022-09-03T13:07:29.140Z,100391.22
2022-09-03T13:10:04.278Z,100382.81
2022-09-03T13:12:34.617Z,100385.38
2022-09-03T13:15:08.259Z,100386.47
2022-09-03T13:17:59.002Z,100377.31
2022-09-03T13:20:44.268Z,100378.13
2022-09-03T13:23:49.943Z,100376.44
2022-09-03T13:26:53.767Z,100370.06
2022-09-03T13:29:52.656Z,100364.97
2022-09-03T13:32:30.712Z,100367.63
2022-09-03T13:35:19.893Z,100371.38
2022-09-03T13:37:55.170Z,100370.94
2022-09-03T13:40:49.816Z,100369.50
2022-09-03T13:43:42.473Z,100359.44
2022-09-03T13:46:30.040Z,100362.38
2022-09-03T13:49:37.922Z,100364.03
2022-09-03T13:52:08.701Z,100367.28
2022-09-03T13:54:49.006Z,100376.53
2022-09-03T13:57:25.015Z,100367.44
2022-09-03T14:00:01.467Z,100373.75
2022-09-03T14:02:46.945Z,100378.47
2022-09-03T14:05:25.095Z,100371.19
2022-09-03T14:08:14.212Z,100376.06
2022-09-03T14:10:56.302Z,100374.13
2022-09-03T14:13:32.176Z,100372.53
2022-09-03T14:16:08.834Z,100376.97
2022-09-03T14:18:51.802Z,100382.75
2022-09-03T14:21:24.776Z,100379.34
2022-09-03T14:24:12.138Z,100376.81
2022-09-03T14:26:50.487Z,100378.16
2022-09-03T14:29:18.337Z,100382.31
2022-09-03T14:32:22.510Z,100377.41
2022-09-03T14:35:07.754Z,100375.22
2022-09-03T14:37:43.483Z,100383.69
2022-09-03T14:40:27.960Z,100373.38
2022-09-03T14:43:06.605Z,100369.00
2022-09-03T14:46:03.612Z,100367.31
2022-09-03T14:48:54.563Z,100368.03
2022-09-03T14:51:35.421Z,100367.06
2022-09-03T14:54:18.989Z,100370.44
2022-09-03T14:56:48.373Z,100373.16
2022-09-03T14:59:34.695Z,100371.31
2022-09-03T15:02:33.765Z,100375.38
2022-09-03T15:05:32.806Z,100368.31
2022-09-03T15:08:02.447Z,100372.22
2022-09-03T15:10:36.392Z,100374.88
2022-09-03T15:13:15.001Z,100376.56
2022-09-03T15:15:52.359Z,100377.03
2022-09-03T15:18:31.054Z,100369.38
2022-09-03T15:21:15.306Z,100367.53
2022-09-03T15:23:52.182Z,100373.13
2022-09-03T15:26:40.049Z,100368.75
2022-09-03T15:29:26.392Z,100372.41
2022-09-03T15:32:00.654Z,100368.53
2022-09-03T15:34:50.754Z,100376.06
2022-09-03T15:37:26.398Z,100368.75
2022-09-03T15:40:23.167Z,100367.91
2022-09-03T15:42:55.398Z,100373.13
2022-09-03T15:45:35.029Z,100371.91
2022-09-03T15:48:21.539Z,100375.44
2022-09-03T15:51:11.946Z,100374.97
2022-09-03T15:53:50.959Z,100372.66
2022-09-03T15:56:43.920Z,100369.50
2022-09-03T15:59:16.254Z,100372.53
2022-09-03T16:01:54.082Z,100373.75
2022-09-03T16:04:48.942Z,100374.81
2022-09-03T16:07:39.581Z,100373.91
2022-09-03T16:10:25.838Z,100367.66
2022-09-03T16:13:05.800Z,100364.75
2022-09-03T16:15:45.447Z,100372.00
2022-09-03T16:18:25.900Z,100375.00
2022-09-03T16:21:57.354Z,100369.97
2022-09-03T16:24:29.319Z,100370.94
2022-09-03T16:27:08.472Z,100375.19
2022-09-03T16:29:38.340Z,100374.16
2022-09-03T16:32:34.579Z,100379.25
2022-09-03T16:35:10.314Z,100385.25
2022-09-03T16:38:25.093Z,100386.56
2022-09-03T16:41:00.701Z,100383.69
2022-09-03T16:44:04.112Z,100380.22
2022-09-03T16:46:36.836Z,100381.94
2022-09-03T16:49:23.275Z,100369.19
2022-09-03T16:51:52.792Z,100383.22
2022-09-03T16:54:27.719Z,100384.44
2022-09-03T16:57:25.018Z,100388.38
2022-09-03T17:00:03.207Z,100386.91
2022-09-03T17:02:41.200Z,100388.03
2022-09-03T17:05:23.622Z,100394.50
2022-09-03T17:08:11.922Z,100404.59
2022-09-03T17:10:41.540Z,100399.50
2022-09-03T17:13:23.216Z,100400.00
2022-09-03T17:16:08.036Z,100410.97
2022-09-03T17:18:59.073Z,100399.66
2022-09-03T17:21:48.823Z,100407.69
2022-09-03T17:24:31.309Z,100404.41
2022-09-03T17:27:12.787Z,100408.06
2022-09-03T17:30:00.646Z,100412.56
2022-09-03T17:33:06.408Z,100408.44
2022-09-03T17:35:50.673Z,100418.63
2022-09-03T17:38:38.968Z,100426.06
2022-09-03T17:41:24.782Z,100428.50
2022-09-03T17:44:02.463Z,100435.91
2022-09-03T17:46:40.920Z,100433.75
2022-09-03T17:49:08.495Z,100443.09
2022-09-03T17:51:39.789Z,100448.81
2022-09-03T17:54:08.615Z,100457.56
2022-09-03T17:56:51.046Z,100454.75
2022-09-03T17:59:50.963Z,100473.34
2022-09-03T18:02:43.429Z,100484.00
2022-09-03T18:05:27.466Z,100486.00
2022-09-03T18:08:35.134Z,100491.31
2022-09-03T18:11:38.650Z,100497.47
2022-09-03T18:14:24.315Z,100503.72
2022-09-03T18:17:05.459Z,100505.50
2022-09-03T18:20:02.651Z,100507.50
2022-09-03T18:22:56.983Z,100516.72
2022-09-03T18:25:44.857Z,100525.16
2022-09-03T18:28:34.789Z,100532.75
2022-09-03T18:31:19.652Z,100530.34
2022-09-03T18:34:04.703Z,100533.75
2022-09-03T18:36:50.763Z,100543.59
2022-09-03T18:39:43.359Z,100532.41
2022-09-03T18:43:01.152Z,100537.28
2022-09-03T18:47:22.484Z,100538.78
2022-09-03T18:49:29.861Z,100543.94
2022-09-03T18:52:23.806Z,100539.69
2022-09-03T18:55:44.734Z,100546.53
2022-09-03T18:58:51.776Z,100543.38
2022-09-03T19:01:59.626Z,100542.94
2022-09-03T19:05:22.511Z,100545.63
2022-09-03T19:08:26.299Z,100553.28
2022-09-03T19:11:22.712Z,100548.47
2022-09-03T19:14:07.604Z,100548.38
2022-09-03T19:17:20.063Z,100557.53
2022-09-03T19:20:32.081Z,100570.53
2022-09-03T19:23:16.958Z,100573.31
2022-09-03T19:26:02.760Z,100578.63
2022-09-03T19:28:56.196Z,100588.13
2022-09-03T19:31:41.141Z,100589.75
2022-09-03T19:34:48.263Z,100594.97
2022-09-03T19:38:02.380Z,100595.94
2022-09-03T19:41:24.180Z,100602.31
2022-09-03T19:44:18.368Z,100599.75
2022-09-03T19:47:12.795Z,100598.66
2022-09-03T19:50:22.882Z,100605.16
2022-09-03T19:53:22.215Z,100600.97
2022-09-03T19:56:12.933Z,100602.22
2022-09-03T19:59:26.644Z,100607.97
2022-09-03T20:02:12.066Z,100604.56
2022-09-03T20:05:02.986Z,100606.16
2022-09-03T20:07:48.347Z,100612.63
2022-09-03T20:10:23.473Z,100610.94
2022-09-03T20:13:02.316Z,100618.38
2022-09-03T20:16:07.330Z,100625.41
2022-09-03T20:19:32.999Z,100620.19
2022-09-03T20:22:03.057Z,100623.13
2022-09-03T20:24:51.011Z,100623.97
2022-09-03T20:27:32.846Z,100626.22
2022-09-03T20:30:05.524Z,100633.81
2022-09-03T20:32:41.071Z,100631.34
2022-09-03T20:35:29.034Z,100626.97
2022-09-03T20:38:23.653Z,100633.94
2022-09-03T20:40:53.072Z,100630.47
2022-09-03T20:43:57.152Z,100632.38
2022-09-03T20:46:55.840Z,100624.72
2022-09-03T20:49:55.193Z,100633.66
2022-09-03T20:52:36.861Z,100630.88
2022-09-03T20:55:18.596Z,100629.19
2022-09-03T20:58:13.246Z,100627.38
2022-09-03T21:01:07.249Z,100634.31
2022-09-03T21:03:42.841Z,100628.50
2022-09-03T21:06:24.614Z,100628.88
2022-09-03T21:09:02.544Z,100628.22
2022-09-03T21:11:53.523Z,100633.06
2022-09-03T21:14:38.184Z,100641.63
2022-09-03T21:17:23.370Z,100648.00
2022-09-03T21:20:15.652Z,100640.19
2022-09-03T21:22:57.356Z,100653.59
2022-09-03T21:25:48.773Z,100654.75
2022-09-03T21:28:32.115Z,100649.34
2022-09-03T21:31:02.158Z,100646.19
2022-09-03T21:33:33.172Z,100648.84
2022-09-03T21:36:07.356Z,100644.47
2022-09-03T21:38:37.343Z,100650.06
2022-09-03T21:41:15.492Z,100647.94
2022-09-03T21:43:48.742Z,100648.13
2022-09-03T21:46:22.120Z,100649.75
2022-09-03T21:48:57.328Z,100656.31
2022-09-03T21:51:36.893Z,100660.69
2022-09-03T21:54:33.681Z,100665.03
2022-09-03T21:57:22.342Z,100661.88
2022-09-03T22:00:18.003Z,100662.84
2022-09-03T22:02:49.401Z,100660.28
2022-09-03T22:05:18.447Z,100652.47
2022-09-03T22:07:54.300Z,100663.94
2022-09-03T22:10:24.384Z,100668.81
2022-09-03T22:13:15.439Z,100667.09
2022-09-03T22:15:48.127Z,100667.25
2022-09-03T22:18:30.291Z,100671.16
2022-09-03T22:20:59.756Z,100672.47
2022-09-03T22:23:45.434Z,100676.91
2022-09-03T22:26:40.510Z,100664.06
2022-09-03T22:29:20.951Z,100671.63
2022-09-03T22:32:03.145Z,100673.34
2022-09-03T22:35:23.932Z,100665.19
2022-09-03T22:38:24.633Z,100673.53
2022-09-03T22:41:01.431Z,100669.31
2022-09-03T22:43:48.243Z,100675.50
2022-09-03T22:46:17.305Z,100679.72
2022-09-03T22:49:09.175Z,100678.78
2022-09-03T22:52:01.754Z,100678.34
2022-09-03T22:54:46.504Z,100681.25
2022-09-03T22:57:15.821Z,100693.06
2022-09-03T22:59:57.272Z,100684.00
2022-09-03T23:02:27.568Z,100693.59
2022-09-03T23:05:03.447Z,100702.47
2022-09-03T23:07:52.595Z,100704.59
2022-09-03T23:10:32.520Z,100702.66
2022-09-03T23:13:16.529Z,100705.56
2022-09-03T23:15:46.148Z,100707.03
2022-09-03T23:18:17.729Z,100704.19
2022-09-03T23:20:53.187Z,100703.34
2022-09-03T23:23:24.476Z,100705.91
2022-09-03T23:26:16.019Z,100703.25
2022-09-03T23:28:49.453Z,100703.44
2022-09-03T23:31:25.348Z,100704.44
2022-09-03T23:33:54.684Z,100701.88
2022-09-03T23:36:55.019Z,100695.97
2022-09-03T23:39:39.849Z,100702.28
2022-09-03T23:42:30.667Z,100704.09
2022-09-03T23:45:16.267Z,100703.34
2022-09-03T23:47:50.343Z,100701.09
2022-09-03T23:50:29.041Z,100705.88
2022-09-03T23:53:31.626Z,100703.22
2022-09-03T23:56:16.951Z,100706.22
2022-09-03T23:59:01.602Z,100709.13
